Time;durP1;ratioP1;P1;durP2;ratioP2;P2;SDS_P1;SDS_P2;PMS_P1;PMS_P2;Temp;Humidity;BMP_temperature;BMP_pressure;BME280_temperature;BME280_humidity;BME280_pressure;Samples;Min_cycle;Max_cycle;Signal;HPM_P1;HPM_P2
2021/06/08 00:02:12;;;;;;;69.80;30.23;;;18.80;99.10;;;;;;5053151;28;20272;-88
2021/06/08 00:04:38;;;;;;;58.97;27.67;;;18.80;99.10;;;;;;5053243;28;20173;-89
2021/06/08 00:07:04;;;;;;;61.20;31.37;;;18.80;99.10;;;;;;5053215;28;20705;-89
2021/06/08 00:09:30;;;;;;;56.43;28.10;;;18.80;99.10;;;;;;5053328;28;20505;-88
2021/06/08 00:11:55;;;;;;;58.90;26.52;;;18.80;99.10;;;;;;5053373;28;20193;-88
2021/06/08 00:14:21;;;;;;;61.07;27.43;;;18.90;99.10;;;;;;5054569;28;20214;-86
2021/06/08 00:16:47;;;;;;;54.03;27.03;;;18.90;99.10;;;;;;5054638;28;20173;-87
2021/06/08 00:19:13;;;;;;;55.50;27.70;;;19.00;99.10;;;;;;5054195;28;20177;-88
2021/06/08 00:21:39;;;;;;;55.83;25.00;;;19.00;99.10;;;;;;5053982;28;20193;-87
2021/06/08 00:24:05;;;;;;;56.63;26.23;;;19.00;99.10;;;;;;5053709;28;20169;-88
2021/06/08 00:26:33;;;;;;;56.25;26.63;;;18.90;99.10;;;;;;5053446;28;20177;-88
2021/06/08 00:28:59;;;;;;;52.35;26.42;;;18.90;99.10;;;;;;5053216;28;20207;-88
2021/06/08 00:31:24;;;;;;;54.70;24.25;;;18.90;99.10;;;;;;5053301;28;20241;-87
2021/06/08 00:33:51;;;;;;;50.27;24.77;;;18.90;99.10;;;;;;5053353;28;20625;-88
2021/06/08 00:36:17;;;;;;;58.25;25.45;;;19.00;99.10;;;;;;5053385;28;20205;-88
2021/06/08 00:38:43;;;;;;;50.88;25.70;;;18.90;99.10;;;;;;5053409;28;20259;-88
2021/06/08 00:41:08;;;;;;;51.00;23.20;;;18.90;99.10;;;;;;5053368;28;20200;-88
2021/06/08 00:43:35;;;;;;;59.87;27.53;;;19.00;99.10;;;;;;5053116;28;20498;-88
2021/06/08 00:46:01;;;;;;;45.17;23.80;;;18.90;99.10;;;;;;5053207;28;20173;-89
2021/06/08 00:48:27;;;;;;;58.60;25.42;;;18.90;99.10;;;;;;5053154;28;20256;-88
2021/06/08 00:50:53;;;;;;;48.87;25.00;;;19.00;99.10;;;;;;5052858;28;20660;-88
2021/06/08 00:53:19;;;;;;;48.60;24.97;;;19.00;99.10;;;;;;5053237;28;20416;-88
2021/06/08 00:55:45;;;;;;;50.80;25.10;;;19.00;99.10;;;;;;5053655;28;20538;-88
2021/06/08 00:58:10;;;;;;;49.30;24.83;;;19.00;99.10;;;;;;5053385;28;20215;-89
2021/06/08 01:00:36;;;;;;;52.67;25.67;;;19.00;99.10;;;;;;5053014;28;20554;-88
2021/06/08 01:03:03;;;;;;;46.97;22.40;;;18.90;99.10;;;;;;5053242;28;20451;-88
2021/06/08 01:05:29;;;;;;;55.95;23.65;;;18.90;99.10;;;;;;5054539;28;20406;-88
2021/06/08 01:07:55;;;;;;;45.97;22.83;;;18.90;99.10;;;;;;5052838;28;20639;-88
2021/06/08 01:10:21;;;;;;;49.97;23.87;;;18.90;99.10;;;;;;5053159;28;20945;-89
2021/06/08 01:12:47;;;;;;;56.67;25.43;;;19.00;99.10;;;;;;5054060;28;20189;-88
2021/06/08 01:15:13;;;;;;;56.30;26.83;;;18.90;99.10;;;;;;5052900;28;20459;-88
2021/06/08 01:17:40;;;;;;;52.35;27.08;;;18.80;99.10;;;;;;5053015;28;20548;-89
2021/06/08 01:20:07;;;;;;;49.13;24.80;;;18.80;99.10;;;;;;5052798;28;20541;-88
2021/06/08 01:22:33;;;;;;;45.03;22.98;;;18.90;99.10;;;;;;5052668;28;20185;-88
2021/06/08 01:24:59;;;;;;;45.92;23.70;;;18.90;99.10;;;;;;5052597;28;20213;-88
2021/06/08 01:27:26;;;;;;;52.30;25.80;;;18.90;99.10;;;;;;5052886;28;20173;-88
2021/06/08 01:29:53;;;;;;;59.25;26.70;;;18.90;99.10;;;;;;5052836;28;20235;-88
2021/06/08 01:32:22;;;;;;;50.58;25.10;;;19.00;99.10;;;;;;5052471;28;20312;-88
2021/06/08 01:34:49;;;;;;;50.83;24.15;;;19.00;99.10;;;;;;5052579;28;20197;-88
2021/06/08 01:37:16;;;;;;;40.17;20.88;;;19.00;99.10;;;;;;5052662;28;20252;-88
2021/06/08 01:39:46;;;;;;;51.78;25.27;;;19.00;99.10;;;;;;5052720;28;20651;-88
2021/06/08 01:42:12;;;;;;;47.08;23.88;;;19.00;99.10;;;;;;5052804;28;20193;-88
2021/06/08 01:44:43;;;;;;;53.20;25.60;;;19.00;99.10;;;;;;5052680;28;20219;-88
2021/06/08 01:47:11;;;;;;;56.20;25.63;;;19.00;99.10;;;;;;5052803;28;20177;-88
2021/06/08 01:49:37;;;;;;;57.10;25.42;;;18.90;99.10;;;;;;5052920;28;20184;-89
2021/06/08 01:52:23;;;;;;;51.72;24.02;;;18.90;99.10;;;;;;5052712;28;20197;-89
2021/06/08 01:55:10;;;;;;;48.67;23.88;;;18.90;99.10;;;;;;5052482;28;20192;-89
2021/06/08 01:57:43;;;;;;;46.47;21.92;;;18.90;99.10;;;;;;5052712;28;20620;-89
2021/06/08 02:00:17;;;;;;;47.05;24.85;;;18.90;99.10;;;;;;5052377;28;20169;-90
2021/06/08 02:03:01;;;;;;;49.20;24.52;;;18.90;99.10;;;;;;5051883;28;20190;-88
2021/06/08 02:05:51;;;;;;;42.10;21.35;;;18.80;99.10;;;;;;5052413;28;20629;-89
2021/06/08 02:08:43;;;;;;;51.08;25.88;;;18.80;99.10;;;;;;5052098;28;20173;-90
2021/06/08 02:11:19;;;;;;;57.38;25.63;;;18.80;99.10;;;;;;5051698;28;20728;-89
2021/06/08 02:14:24;;;;;;;55.20;25.05;;;18.80;99.10;;;;;;5052206;28;20256;-90
2021/06/08 02:16:57;;;;;;;45.20;23.80;;;18.70;99.10;;;;;;5051696;28;20193;-89
2021/06/08 02:19:25;;;;;;;48.15;23.17;;;18.80;99.10;;;;;;5051814;28;20173;-88
2021/06/08 02:22:11;;;;;;;46.42;23.77;;;18.80;99.10;;;;;;5055685;28;20728;-89
2021/06/08 02:24:38;;;;;;;45.75;22.10;;;18.90;99.10;;;;;;5056315;28;20181;-89
2021/06/08 02:27:07;;;;;;;43.70;21.50;;;18.90;99.10;;;;;;5055369;28;20260;-89
2021/06/08 02:29:34;;;;;;;44.03;22.40;;;19.00;99.10;;;;;;5055441;28;20169;-89
2021/06/08 02:32:00;;;;;;;58.70;28.17;;;19.00;99.10;;;;;;5055641;28;20211;-89
2021/06/08 02:34:28;;;;;;;48.30;23.85;;;19.00;99.10;;;;;;5055563;28;20653;-89
2021/06/08 02:36:54;;;;;;;42.22;20.92;;;19.00;99.10;;;;;;5055301;28;20175;-89
2021/06/08 02:39:22;;;;;;;50.70;24.17;;;19.00;99.10;;;;;;5055160;28;20169;-89
2021/06/08 02:41:49;;;;;;;51.47;23.73;;;19.10;99.10;;;;;;5055246;28;20185;-88
2021/06/08 02:44:15;;;;;;;45.53;22.73;;;19.10;99.10;;;;;;5055300;28;20177;-88
2021/06/08 02:46:41;;;;;;;55.17;25.58;;;19.10;99.10;;;;;;5055301;28;20260;-88
2021/06/08 02:49:09;;;;;;;47.00;23.30;;;19.10;99.10;;;;;;5055074;28;20208;-88
2021/06/08 02:51:37;;;;;;;59.03;26.80;;;19.00;99.10;;;;;;5054903;28;20492;-89
2021/06/08 02:54:04;;;;;;;47.28;22.17;;;19.00;99.10;;;;;;5054857;28;20173;-89
2021/06/08 02:56:31;;;;;;;46.83;21.50;;;19.00;99.10;;;;;;5055008;28;20209;-88
2021/06/08 02:58:57;;;;;;;45.70;23.33;;;19.00;99.10;;;;;;5055324;28;20633;-88
2021/06/08 03:01:23;;;;;;;53.22;24.60;;;19.00;99.10;;;;;;5055241;28;20243;-89
2021/06/08 03:03:53;;;;;;;42.30;20.60;;;19.00;99.10;;;;;;5054692;28;20165;-89
2021/06/08 03:06:26;;;;;;;48.50;23.70;;;19.00;99.10;;;;;;5056324;28;20403;-90
2021/06/08 03:09:05;;;;;;;50.42;26.35;;;19.10;99.10;;;;;;5055107;28;20230;-89
2021/06/08 03:11:50;;;;;;;54.55;26.10;;;19.00;99.10;;;;;;5054851;28;20282;-89
2021/06/08 03:14:19;;;;;;;55.75;27.55;;;18.90;99.10;;;;;;5055250;28;20689;-89
2021/06/08 03:16:51;;;;;;;48.28;24.95;;;18.90;99.10;;;;;;5054894;28;20482;-89
2021/06/08 03:19:21;;;;;;;53.53;26.52;;;18.90;99.10;;;;;;5054749;28;20629;-89
2021/06/08 03:21:51;;;;;;;56.55;26.83;;;18.90;99.10;;;;;;5054940;28;20243;-88
2021/06/08 03:24:20;;;;;;;59.08;27.90;;;19.00;99.10;;;;;;5054780;28;20219;-89
2021/06/08 03:26:46;;;;;;;60.00;26.55;;;18.90;99.10;;;;;;5054776;28;20174;-88
2021/06/08 03:29:15;;;;;;;49.25;24.75;;;18.80;99.10;;;;;;5054664;28;20161;-89
2021/06/08 03:31:44;;;;;;;52.63;26.38;;;18.80;99.10;;;;;;5054042;28;20208;-88
2021/06/08 03:34:15;;;;;;;51.97;25.92;;;18.80;99.10;;;;;;5055649;28;20237;-88
2021/06/08 03:36:46;;;;;;;59.22;25.67;;;18.70;99.10;;;;;;5054637;28;20165;-89
2021/06/08 03:39:14;;;;;;;59.47;27.13;;;18.70;99.10;;;;;;5054351;28;20185;-88
2021/06/08 03:41:41;;;;;;;57.65;27.10;;;18.70;99.10;;;;;;5053997;28;20196;-88
2021/06/08 03:44:07;;;;;;;70.53;31.90;;;18.60;99.10;;;;;;5054893;28;20659;-89
2021/06/08 03:46:36;;;;;;;65.57;30.48;;;18.60;99.10;;;;;;5054557;28;20204;-89
2021/06/08 03:49:03;;;;;;;64.00;30.92;;;18.60;99.10;;;;;;5054165;28;20169;-89
2021/06/08 03:51:32;;;;;;;59.88;27.45;;;18.70;99.10;;;;;;5054375;28;20688;-89
2021/06/08 03:53:59;;;;;;;59.80;27.70;;;18.60;99.10;;;;;;5054489;28;20173;-87
2021/06/08 03:56:27;;;;;;;60.00;29.10;;;18.70;99.10;;;;;;5054454;28;20197;-87
2021/06/08 03:58:55;;;;;;;63.15;29.08;;;18.70;99.10;;;;;;5055098;28;20169;-89
2021/06/08 04:01:23;;;;;;;54.38;26.33;;;18.60;99.10;;;;;;5053587;28;20189;-88
2021/06/08 04:03:50;;;;;;;55.95;26.20;;;18.60;99.10;;;;;;5054351;28;20170;-89
2021/06/08 04:06:18;;;;;;;58.55;28.60;;;18.60;99.10;;;;;;5054629;28;20268;-88
2021/06/08 04:08:44;;;;;;;55.92;29.05;;;18.60;99.10;;;;;;5054242;28;20177;-88
2021/06/08 04:11:11;;;;;;;62.65;28.80;;;18.60;99.10;;;;;;5054314;28;20177;-89
2021/06/08 04:13:41;;;;;;;64.47;30.48;;;18.60;99.10;;;;;;5053906;28;20173;-88
2021/06/08 04:16:08;;;;;;;59.53;27.52;;;18.60;99.10;;;;;;5054491;28;20543;-89
2021/06/08 04:18:35;;;;;;;49.85;26.83;;;18.60;99.10;;;;;;5053863;28;20649;-88
2021/06/08 04:21:01;;;;;;;60.25;27.30;;;18.60;99.10;;;;;;5054006;28;20177;-88
2021/06/08 04:23:28;;;;;;;54.28;27.17;;;18.60;99.10;;;;;;5053759;28;20157;-88
2021/06/08 04:25:54;;;;;;;64.78;29.02;;;18.60;99.10;;;;;;5053863;28;20169;-88
2021/06/08 04:28:21;;;;;;;56.58;26.45;;;18.70;99.10;;;;;;5053645;28;20173;-88
2021/06/08 04:30:47;;;;;;;60.70;26.70;;;18.60;99.10;;;;;;5053897;28;20180;-86
2021/06/08 04:33:14;;;;;;;60.42;27.65;;;18.60;99.10;;;;;;5054417;28;20204;-87
2021/06/08 04:35:42;;;;;;;59.17;26.52;;;18.70;99.10;;;;;;5054195;28;20205;-89
2021/06/08 04:38:08;;;;;;;61.25;29.00;;;18.60;99.10;;;;;;5054168;28;20172;-89
2021/06/08 04:40:36;;;;;;;57.90;28.70;;;18.70;99.10;;;;;;5054101;28;20542;-89
2021/06/08 04:43:02;;;;;;;49.10;25.48;;;18.70;99.10;;;;;;5053931;28;20427;-89
2021/06/08 04:45:28;;;;;;;63.13;27.57;;;18.70;99.10;;;;;;5054186;28;20180;-90
2021/06/08 04:47:54;;;;;;;67.10;28.58;;;18.80;99.10;;;;;;5054119;28;20438;-91
2021/06/08 04:50:20;;;;;;;61.30;27.40;;;18.80;99.10;;;;;;5054097;28;20652;-91
2021/06/08 04:52:55;;;;;;;58.73;28.27;;;18.80;99.10;;;;;;5052993;28;20193;-91
2021/06/08 04:55:21;;;;;;;58.35;26.67;;;18.80;99.10;;;;;;5052950;28;20462;-88
2021/06/08 04:57:47;;;;;;;56.00;25.48;;;18.80;99.10;;;;;;5053273;28;20165;-89
2021/06/08 05:00:14;;;;;;;53.10;26.70;;;18.90;99.10;;;;;;5053816;28;20176;-90
2021/06/08 05:02:48;;;;;;;58.67;27.48;;;18.90;99.10;;;;;;5053392;28;20848;-92
2021/06/08 05:05:20;;;;;;;59.42;26.85;;;18.80;99.10;;;;;;5054752;28;20178;-92
2021/06/08 05:07:54;;;;;;;49.75;24.27;;;18.70;99.10;;;;;;5055945;28;20218;-92
2021/06/08 05:10:21;;;;;;;54.97;27.08;;;18.70;99.10;;;;;;5055416;28;20271;-92
2021/06/08 05:12:49;;;;;;;51.80;25.95;;;18.70;99.10;;;;;;5055320;28;20798;-91
2021/06/08 05:15:18;;;;;;;55.20;26.00;;;18.70;99.10;;;;;;5055413;28;20200;-92
2021/06/08 05:17:45;;;;;;;53.65;25.67;;;18.60;99.10;;;;;;5055409;28;20170;-92
2021/06/08 05:20:13;;;;;;;63.78;26.85;;;18.70;99.10;;;;;;5055035;28;20264;-92
2021/06/08 05:22:40;;;;;;;63.08;27.10;;;18.70;99.10;;;;;;5054437;28;20284;-92
2021/06/08 05:25:08;;;;;;;55.33;25.25;;;18.70;99.10;;;;;;5054188;28;20516;-92
2021/06/08 05:27:34;;;;;;;55.97;25.55;;;18.70;99.10;;;;;;5053864;28;20174;-90
2021/06/08 05:30:01;;;;;;;55.45;26.30;;;18.70;99.10;;;;;;5052998;28;20177;-87
2021/06/08 05:32:28;;;;;;;57.55;27.02;;;18.80;99.10;;;;;;5052619;28;20213;-88
2021/06/08 05:34:54;;;;;;;58.72;26.25;;;18.80;99.10;;;;;;5052324;28;20255;-88
2021/06/08 05:37:21;;;;;;;60.53;29.27;;;18.80;99.10;;;;;;5052566;28;20173;-88
2021/06/08 05:39:47;;;;;;;68.13;28.05;;;18.70;99.10;;;;;;5052555;28;20408;-88
2021/06/08 05:42:18;;;;;;;62.13;26.93;;;18.60;99.10;;;;;;5052634;28;20578;-89
2021/06/08 05:44:44;;;;;;;54.13;27.73;;;18.70;99.10;;;;;;5052455;28;20161;-88
2021/06/08 05:47:10;;;;;;;50.50;26.25;;;18.80;99.10;;;;;;5052502;28;20183;-88
2021/06/08 05:49:38;;;;;;;57.13;27.20;;;18.80;99.10;;;;;;5053303;28;20193;-88
2021/06/08 05:52:06;;;;;;;60.15;27.88;;;18.90;99.10;;;;;;5052163;28;20540;-88
2021/06/08 05:54:32;;;;;;;55.10;26.00;;;18.90;99.10;;;;;;5054812;28;20169;-88
2021/06/08 05:56:59;;;;;;;53.70;27.42;;;19.00;99.10;;;;;;5056764;28;20169;-88
2021/06/08 05:59:25;;;;;;;49.70;27.00;;;18.90;99.10;;;;;;5056186;28;20169;-88
2021/06/08 06:01:51;;;;;;;53.05;24.85;;;18.90;99.10;;;;;;5056167;28;20196;-88
2021/06/08 06:04:18;;;;;;;55.87;26.20;;;18.90;99.10;;;;;;5056286;28;20173;-89
2021/06/08 06:06:46;;;;;;;52.28;25.98;;;18.90;99.10;;;;;;5055954;28;20436;-89
2021/06/08 06:09:14;;;;;;;51.40;26.60;;;18.90;99.10;;;;;;5055617;28;20222;-88
2021/06/08 06:11:41;;;;;;;56.92;27.85;;;18.90;99.10;;;;;;5055686;28;20782;-88
2021/06/08 06:14:07;;;;;;;52.30;26.45;;;18.90;99.10;;;;;;5056132;28;20170;-89
2021/06/08 06:16:46;;;;;;;50.38;25.13;;;18.80;99.10;;;;;;5055380;28;20221;-88
2021/06/08 06:19:12;;;;;;;49.65;24.85;;;18.90;99.10;;;;;;5056033;28;20165;-88
2021/06/08 06:21:39;;;;;;;47.63;24.13;;;18.80;99.10;;;;;;5055625;28;20559;-88
2021/06/08 06:24:06;;;;;;;50.60;25.63;;;18.90;99.10;;;;;;5055336;28;20264;-88
2021/06/08 06:26:33;;;;;;;48.80;24.77;;;19.00;99.10;;;;;;5055561;28;20212;-89
2021/06/08 06:28:59;;;;;;;47.83;23.52;;;19.10;99.10;;;;;;5055977;28;20260;-89
2021/06/08 06:31:26;;;;;;;45.60;24.92;;;19.10;99.10;;;;;;5055513;28;20209;-86
2021/06/08 06:33:56;;;;;;;53.60;26.70;;;19.20;99.10;;;;;;5056214;28;20684;-83
2021/06/08 06:36:27;;;;;;;51.28;24.38;;;19.10;99.10;;;;;;5055424;28;20234;-86
2021/06/08 06:38:58;;;;;;;44.65;25.63;;;19.00;99.10;;;;;;5055300;28;20200;-86
2021/06/08 06:41:24;;;;;;;47.08;23.83;;;19.10;99.10;;;;;;5055471;28;20211;-86
2021/06/08 06:43:53;;;;;;;46.58;23.95;;;19.10;99.10;;;;;;5056530;28;20169;-84
2021/06/08 06:46:20;;;;;;;50.53;26.55;;;19.10;99.10;;;;;;5056523;28;20177;-84
2021/06/08 06:48:46;;;;;;;53.45;27.85;;;19.10;99.10;;;;;;5056882;28;20243;-84
2021/06/08 06:51:15;;;;;;;44.22;24.17;;;19.10;99.10;;;;;;5056167;28;20287;-84
2021/06/08 06:53:41;;;;;;;52.95;27.02;;;19.10;99.10;;;;;;5056300;28;20659;-86
2021/06/08 06:56:07;;;;;;;47.90;25.37;;;19.10;99.10;;;;;;5056581;28;20201;-84
2021/06/08 06:58:33;;;;;;;49.13;24.90;;;19.10;99.10;;;;;;5056397;28;20411;-84
2021/06/08 07:01:00;;;;;;;50.03;27.00;;;19.20;99.10;;;;;;5056406;28;20408;-84
2021/06/08 07:03:31;;;;;;;50.20;24.25;;;19.20;99.10;;;;;;5058124;28;20191;-84
2021/06/08 07:06:01;;;;;;;53.42;26.55;;;19.20;99.10;;;;;;5054501;28;20177;-84
2021/06/08 07:08:29;;;;;;;57.72;26.45;;;19.20;99.10;;;;;;5055078;28;20264;-85
2021/06/08 07:10:56;;;;;;;50.88;26.55;;;19.20;99.10;;;;;;5054885;28;20179;-85
2021/06/08 07:13:22;;;;;;;54.20;26.40;;;19.20;99.10;;;;;;5055064;28;20180;-85
2021/06/08 07:15:53;;;;;;;47.67;24.17;;;19.30;99.10;;;;;;5055496;28;20215;-85
2021/06/08 07:18:19;;;;;;;59.80;27.95;;;19.30;99.10;;;;;;5055375;28;20176;-85
2021/06/08 07:20:46;;;;;;;45.70;23.80;;;19.30;99.10;;;;;;5055228;28;20173;-85
2021/06/08 07:23:16;;;;;;;52.38;25.60;;;19.40;99.10;;;;;;5054810;28;20190;-85
2021/06/08 07:25:43;;;;;;;53.35;24.75;;;19.40;99.10;;;;;;5055065;28;20172;-85
2021/06/08 07:28:10;;;;;;;52.40;26.60;;;19.60;99.10;;;;;;5055015;28;20272;-85
2021/06/08 07:30:38;;;;;;;53.97;26.55;;;19.70;98.70;;;;;;5055374;28;20230;-83
2021/06/08 07:33:22;;;;;;;47.78;25.15;;;19.70;98.50;;;;;;5054700;28;20243;-84
2021/06/08 07:36:18;;;;;;;55.50;27.60;;;19.80;98.20;;;;;;5055211;28;20201;-85
2021/06/08 07:38:58;;;;;;;47.72;24.58;;;19.80;97.80;;;;;;5054781;28;20166;-85
2021/06/08 07:41:42;;;;;;;68.65;27.80;;;19.80;98.00;;;;;;5055014;28;20251;-84
2021/06/08 07:44:18;;;;;;;47.22;24.38;;;19.70;97.50;;;;;;5054601;28;20640;-84
2021/06/08 07:46:46;;;;;;;57.85;27.52;;;19.70;98.00;;;;;;5054607;28;20180;-84
2021/06/08 07:49:14;;;;;;;57.03;28.67;;;19.80;97.80;;;;;;5054486;28;20177;-84
2021/06/08 07:51:44;;;;;;;51.92;25.67;;;19.80;97.60;;;;;;5054461;28;20691;-84
2021/06/08 07:54:11;;;;;;;56.90;26.48;;;19.70;97.90;;;;;;5054240;28;20181;-84
2021/06/08 07:56:38;;;;;;;50.45;25.20;;;19.70;98.20;;;;;;5054133;28;20236;-84
2021/06/08 07:59:04;;;;;;;54.88;26.08;;;19.80;97.70;;;;;;5055311;28;20188;-84
2021/06/08 08:01:30;;;;;;;61.30;28.03;;;19.80;97.80;;;;;;5054705;28;20197;-84
2021/06/08 08:03:56;;;;;;;51.08;24.00;;;19.70;97.50;;;;;;5054494;28;20518;-84
2021/06/08 08:06:24;;;;;;;55.42;28.20;;;19.80;97.50;;;;;;5055012;28;20538;-84
2021/06/08 08:08:53;;;;;;;48.22;25.40;;;19.80;97.30;;;;;;5056137;28;20176;-84
2021/06/08 08:11:19;;;;;;;57.55;28.67;;;19.70;97.70;;;;;;5055246;28;20276;-85
2021/06/08 08:13:50;;;;;;;53.83;27.30;;;19.80;97.50;;;;;;5055181;28;20260;-84
2021/06/08 08:16:17;;;;;;;56.45;25.98;;;19.80;97.50;;;;;;5054052;28;20255;-84
2021/06/08 08:18:44;;;;;;;51.63;26.98;;;19.90;97.50;;;;;;5054346;28;20259;-84
2021/06/08 08:21:14;;;;;;;55.55;27.08;;;20.00;97.20;;;;;;5054230;28;20173;-85
2021/06/08 08:23:41;;;;;;;66.75;32.03;;;20.00;95.20;;;;;;5054877;28;20644;-84
2021/06/08 08:26:09;;;;;;;54.60;27.65;;;19.90;95.70;;;;;;5053927;28;20517;-84
2021/06/08 08:28:36;;;;;;;58.65;28.60;;;20.00;96.60;;;;;;5053706;28;20195;-84
2021/06/08 08:31:04;;;;;;;55.25;26.92;;;20.00;96.40;;;;;;5053169;28;20648;-84
2021/06/08 08:33:31;;;;;;;59.55;28.20;;;20.20;96.30;;;;;;5053594;28;20192;-85
2021/06/08 08:35:57;;;;;;;56.33;28.48;;;20.30;96.30;;;;;;5054004;28;20192;-87
2021/06/08 08:38:23;;;;;;;55.13;27.50;;;20.40;95.30;;;;;;5053923;28;20173;-87
2021/06/08 08:40:50;;;;;;;57.00;27.98;;;20.50;94.50;;;;;;5053567;28;20530;-87
2021/06/08 08:43:17;;;;;;;60.78;30.73;;;20.60;94.40;;;;;;5053457;28;20607;-87
2021/06/08 08:45:43;;;;;;;52.22;29.05;;;20.70;92.80;;;;;;5053411;28;20181;-87
2021/06/08 08:48:09;;;;;;;65.70;29.67;;;20.80;93.40;;;;;;5054076;28;20177;-87
2021/06/08 08:50:35;;;;;;;60.58;28.50;;;20.90;92.90;;;;;;5053376;28;20169;-87
2021/06/08 08:53:04;;;;;;;63.85;29.55;;;21.00;92.60;;;;;;5053520;28;20201;-87
2021/06/08 08:55:32;;;;;;;55.17;29.33;;;21.00;91.50;;;;;;5053956;28;20201;-87
2021/06/08 08:57:59;;;;;;;58.78;29.00;;;21.00;91.20;;;;;;5053993;28;20616;-87
2021/06/08 09:00:28;;;;;;;62.38;30.38;;;21.00;92.20;;;;;;5053663;28;20180;-87
2021/06/08 09:02:55;;;;;;;58.92;29.05;;;21.10;92.00;;;;;;5053986;28;20193;-87
2021/06/08 09:05:21;;;;;;;59.78;28.08;;;21.10;91.90;;;;;;5054463;28;20184;-88
2021/06/08 09:07:50;;;;;;;58.28;28.88;;;21.00;91.60;;;;;;5054031;28;20181;-88
2021/06/08 09:10:16;;;;;;;53.58;25.77;;;21.10;91.50;;;;;;5053157;28;20209;-88
2021/06/08 09:12:42;;;;;;;58.15;27.55;;;21.30;91.90;;;;;;5053116;28;20197;-88
2021/06/08 09:15:08;;;;;;;54.80;26.67;;;21.50;91.40;;;;;;5052981;28;20212;-88
2021/06/08 09:17:38;;;;;;;57.25;28.50;;;21.80;89.50;;;;;;5053150;28;20173;-89
2021/06/08 09:20:05;;;;;;;56.55;29.65;;;21.80;89.80;;;;;;5052800;28;20260;-88
2021/06/08 09:22:49;;;;;;;57.78;25.83;;;21.80;90.20;;;;;;5052632;28;20193;-87
2021/06/08 09:25:35;;;;;;;53.88;26.33;;;21.90;90.50;;;;;;5053840;28;20179;-88
2021/06/08 09:28:21;;;;;;;57.17;25.92;;;22.00;89.50;;;;;;5054056;28;20177;-88
2021/06/08 09:30:52;;;;;;;48.08;24.77;;;22.00;88.80;;;;;;5053486;28;20161;-88
2021/06/08 09:33:22;;;;;;;53.28;27.08;;;22.00;89.40;;;;;;5054450;28;20169;-86
2021/06/08 09:35:57;;;;;;;48.47;25.88;;;22.00;89.90;;;;;;5053057;28;20288;-86
2021/06/08 09:38:39;;;;;;;56.28;26.48;;;22.10;90.10;;;;;;5053074;28;20650;-87
2021/06/08 09:41:47;;;;;;;46.83;28.27;;;22.20;88.80;;;;;;5053135;28;20616;-87
2021/06/08 09:44:17;;;;;;;54.13;28.63;;;22.40;88.40;;;;;;5020760;28;20185;-87
2021/06/08 09:46:47;;;;;;;51.92;26.25;;;22.40;86.70;;;;;;5052533;28;20651;-86
2021/06/08 09:49:35;;;;;;;56.92;29.35;;;22.50;87.40;;;;;;5052652;28;20603;-87
2021/06/08 09:52:08;;;;;;;58.45;30.17;;;22.60;86.30;;;;;;5052733;28;20195;-87
2021/06/08 09:54:42;;;;;;;56.70;28.67;;;22.40;87.30;;;;;;5052930;28;20173;-86
2021/06/08 09:57:19;;;;;;;53.15;27.98;;;22.40;87.30;;;;;;5052452;28;20213;-87
2021/06/08 09:59:55;;;;;;;50.63;28.10;;;22.40;86.20;;;;;;5052726;28;20629;-87
2021/06/08 10:02:24;;;;;;;51.40;27.30;;;22.50;86.90;;;;;;5052267;28;20193;-87
2021/06/08 10:04:51;;;;;;;58.15;27.65;;;22.40;88.10;;;;;;5052320;28;20196;-86
2021/06/08 10:07:27;;;;;;;54.33;27.85;;;22.50;86.40;;;;;;5057612;28;20188;-86
2021/06/08 10:10:09;;;;;;;55.25;30.58;;;22.50;87.00;;;;;;5052533;28;20209;-86
2021/06/08 10:12:43;;;;;;;45.13;24.95;;;22.50;86.20;;;;;;5052896;28;20221;-85
2021/06/08 10:15:11;;;;;;;55.85;27.70;;;22.60;86.90;;;;;;5053366;28;20193;-86
2021/06/08 10:17:38;;;;;;;54.28;26.48;;;22.70;85.50;;;;;;5053455;28;20184;-86
2021/06/08 10:20:20;;;;;;;54.58;27.83;;;22.90;84.90;;;;;;5053421;28;20170;-86
2021/06/08 10:22:49;;;;;;;50.55;24.48;;;22.90;85.20;;;;;;5053635;28;20196;-86
2021/06/08 10:25:16;;;;;;;48.45;24.95;;;23.00;85.80;;;;;;5052609;28;20271;-85
2021/06/08 10:27:42;;;;;;;49.05;25.45;;;23.20;83.30;;;;;;5052909;28;20181;-86
2021/06/08 10:30:09;;;;;;;49.08;26.13;;;23.40;84.60;;;;;;5053323;28;20177;-85
2021/06/08 10:32:38;;;;;;;51.97;28.35;;;23.50;82.30;;;;;;5051806;28;20276;-85
2021/06/08 10:35:06;;;;;;;41.72;24.35;;;23.60;81.40;;;;;;5052513;28;20247;-87
2021/06/08 10:37:32;;;;;;;49.50;27.05;;;23.80;82.40;;;;;;5052199;28;20224;-86
2021/06/08 10:40:02;;;;;;;50.35;26.27;;;23.80;81.30;;;;;;5053129;28;20172;-85
2021/06/08 10:42:28;;;;;;;50.22;26.40;;;23.80;80.10;;;;;;5056190;28;20200;-86
2021/06/08 10:45:06;;;;;;;50.30;26.02;;;23.80;80.60;;;;;;5057162;28;20188;-86
2021/06/08 10:47:43;;;;;;;49.00;25.80;;;24.00;79.50;;;;;;5056990;28;20177;-86
2021/06/08 10:50:45;;;;;;;46.85;25.95;;;24.20;81.00;;;;;;5056804;28;20176;-85
2021/06/08 10:53:33;;;;;;;46.45;25.23;;;24.10;78.00;;;;;;5024778;28;20370;-86
2021/06/08 10:56:01;;;;;;;44.08;23.30;;;24.20;79.60;;;;;;5057274;28;20294;-82
2021/06/08 10:59:06;;;;;;;44.45;26.45;;;24.20;78.30;;;;;;5057765;28;20194;-83
2021/06/08 11:01:38;;;;;;;44.45;26.85;;;24.30;79.80;;;;;;5000742;28;20195;-84
2021/06/08 11:04:22;;;;;;;42.28;26.20;;;24.40;80.50;;;;;;5000543;28;20260;-87
2021/06/08 11:06:57;;;;;;;42.38;24.80;;;24.40;77.40;;;;;;5035703;28;20188;-87
2021/06/08 11:09:23;;;;;;;42.00;24.20;;;24.40;78.70;;;;;;5057247;28;20247;-88
2021/06/08 11:11:49;;;;;;;47.70;26.97;;;24.50;78.70;;;;;;5056852;28;20189;-86
2021/06/08 11:14:46;;;;;;;43.43;25.40;;;24.20;77.40;;;;;;5056325;28;20259;-87
2021/06/08 11:17:33;;;;;;;52.92;27.30;;;24.20;77.80;;;;;;5054188;28;20977;-84
2021/06/08 11:20:00;;;;;;;46.25;25.88;;;24.10;77.70;;;;;;5058216;28;20196;-84
2021/06/08 11:22:32;;;;;;;45.30;25.58;;;24.10;78.80;;;;;;5057037;28;20189;-85
2021/06/08 11:24:59;;;;;;;52.20;26.60;;;24.00;78.50;;;;;;5058415;28;20222;-84
2021/06/08 11:28:05;;;;;;;48.25;26.15;;;23.90;78.90;;;;;;5057183;28;20199;-85
2021/06/08 11:30:37;;;;;;;47.28;26.80;;;23.90;79.40;;;;;;4999699;28;20194;-85
2021/06/08 11:33:09;;;;;;;39.63;23.27;;;23.80;80.30;;;;;;5047958;28;20561;-87
2021/06/08 11:35:42;;;;;;;40.75;25.63;;;24.00;80.60;;;;;;5056149;28;20189;-86
2021/06/08 11:38:25;;;;;;;39.75;24.23;;;24.10;78.80;;;;;;5056434;28;20176;-86
2021/06/08 11:41:00;;;;;;;41.97;23.25;;;24.20;78.40;;;;;;5056383;28;20168;-86
2021/06/08 11:43:25;;;;;;;39.28;22.40;;;24.20;78.00;;;;;;5055754;28;20582;-86
2021/06/08 11:46:16;;;;;;;38.97;24.00;;;24.20;78.80;;;;;;5056300;28;20169;-86
2021/06/08 11:48:47;;;;;;;50.25;26.30;;;24.20;78.70;;;;;;5056545;28;20629;-86
2021/06/08 11:51:19;;;;;;;44.70;25.38;;;24.10;79.50;;;;;;5056400;28;20193;-87
2021/06/08 11:53:57;;;;;;;44.58;25.05;;;24.10;79.20;;;;;;5055730;28;20544;-86
2021/06/08 11:56:46;;;;;;;51.35;26.33;;;24.00;79.10;;;;;;5056174;28;20228;-86
2021/06/08 11:59:13;;;;;;;48.03;26.10;;;24.10;78.90;;;;;;5055909;28;20311;-86
2021/06/08 12:01:44;;;;;;;45.85;25.65;;;24.20;78.30;;;;;;5055354;28;20757;-86
2021/06/08 12:04:11;;;;;;;46.75;26.52;;;24.40;78.30;;;;;;5055521;28;20173;-86
2021/06/08 12:07:13;;;;;;;41.45;23.40;;;24.60;77.00;;;;;;5055893;28;20264;-86
2021/06/08 12:09:47;;;;;;;38.00;23.58;;;24.90;76.40;;;;;;4998596;28;20198;-88
2021/06/08 12:12:17;;;;;;;46.97;25.95;;;25.10;75.10;;;;;;5046564;28;20201;-88
2021/06/08 12:14:56;;;;;;;45.78;23.52;;;25.20;73.30;;;;;;5056322;28;20169;-87
2021/06/08 12:17:23;;;;;;;36.30;23.73;;;25.10;75.10;;;;;;5055736;28;20232;-88
2021/06/08 12:19:49;;;;;;;40.95;23.50;;;25.20;75.30;;;;;;5057362;28;20173;-87
2021/06/08 12:22:30;;;;;;;40.90;24.05;;;25.30;75.30;;;;;;5054902;28;20189;-88
2021/06/08 12:25:04;;;;;;;41.25;25.30;;;25.40;74.50;;;;;;5055958;28;20641;-88
2021/06/08 12:27:45;;;;;;;38.53;24.27;;;25.40;75.60;;;;;;5055770;28;20180;-87
2021/06/08 12:30:17;;;;;;;44.13;25.77;;;25.30;74.40;;;;;;5055393;28;20180;-88
2021/06/08 12:32:43;;;;;;;40.78;22.15;;;25.30;75.20;;;;;;5054787;28;20219;-88
2021/06/08 12:35:50;;;;;;;38.42;23.88;;;25.30;75.20;;;;;;5056280;28;20229;-89
2021/06/08 12:38:22;;;;;;;41.03;22.70;;;25.40;73.90;;;;;;5054145;28;20172;-88
2021/06/08 12:41:01;;;;;;;43.53;23.52;;;25.40;73.50;;;;;;5054814;28;20165;-88
2021/06/08 12:43:28;;;;;;;32.58;21.02;;;25.40;72.80;;;;;;5055547;28;20640;-89
2021/06/08 12:45:58;;;;;;;45.25;21.95;;;25.50;73.70;;;;;;5054470;28;20179;-89